»·PEaware :: N463PA KPSP-KSMO

N463PA :: KPSP-KSMO

FLIGHT INFORMATION

Flight Status: Arrived
Operator: Privately registered:
United States
More flights under this callsign
Pilot: Vinicius U. (17612)
Aircraft: PIPER PA-44 SEMINOLE
(PA44)
More flights by this aircraft type
Origin: KPSP Palm Springs Intl
United States
Destination: KSMO Santa Monica Mun
United States
More flights between these airports :: More routes between these airports
Route: +CATH1 PSP V388 PDZ DARTS
File this flight plan on PilotEdge
Remarks:
Altitude:
(Current/Filed)
F100
Speed:
(Current/Filed)
140kts
Departed: 26-Dec-17 12:25 PM
Arrived: 26-Dec-17 01:20 PM
Distance/Time
Traveled:
97nm/0:55
Distance/Time
To Go:
Arrived

Flight Plot

Page will automatically refresh every two minutes.

Flight plan parsing failed; only flown route is shown


Map Options




Map Legend


Flown Route
Filed Route
Departure Airport
Arrival Airport
Navaid (VOR, NDB)
Fix

Horizontal Profiles

Position Reports

Time Latitude Longitude Heading Altitude Ground
Speed
26-Dec-17 12:10 33.820809 -116.494979 136 480ft 0kts
26-Dec-17 12:11 33.820809 -116.494979 136 480ft 0kts
26-Dec-17 12:12 33.820809 -116.494979 136 480ft 0kts
26-Dec-17 12:13 33.820809 -116.494979 136 480ft 0kts
26-Dec-17 12:14 33.820809 -116.494979 136 480ft 0kts
26-Dec-17 12:15 33.820809 -116.494979 136 480ft 0kts
26-Dec-17 12:16 33.820809 -116.494979 136 480ft 0kts
26-Dec-17 12:17 33.820809 -116.494979 136 480ft 0kts
26-Dec-17 12:18 33.820809 -116.494979 136 480ft 0kts
26-Dec-17 12:19 33.820809 -116.494979 136 480ft 0kts
26-Dec-17 12:20 33.820809 -116.494979 136 480ft 0kts
26-Dec-17 12:21 33.820809 -116.494978 136 480ft 0kts
26-Dec-17 12:22 33.820808 -116.494978 136 480ft 0kts
26-Dec-17 12:23 33.820808 -116.494977 136 480ft 0kts
26-Dec-17 12:24 33.820585 -116.495154 278 480ft 11kts
26-Dec-17 12:25 33.824741 -116.499324 257 480ft 12kts
26-Dec-17 12:26 33.824641 -116.499584 234 480ft 0kts
26-Dec-17 12:27 33.824638 -116.499591 234 480ft 0kts
26-Dec-17 12:28 33.824637 -116.499592 234 480ft 0kts
26-Dec-17 12:29 33.824636 -116.499593 234 480ft 0kts
26-Dec-17 12:30 33.824636 -116.499594 234 480ft 0kts
26-Dec-17 12:31 33.834867 -116.509386 323 682ft 108kts
26-Dec-17 12:32 33.861340 -116.534473 329 1637ft 123kts
26-Dec-17 12:33 33.888828 -116.557633 319 2640ft 118kts
26-Dec-17 12:34 33.912303 -116.551357 95 3690ft 113kts
26-Dec-17 12:35 33.900731 -116.514931 108 4687ft 119kts
26-Dec-17 12:36 33.886584 -116.479524 112 5756ft 118kts
26-Dec-17 12:37 33.889943 -116.447468 9 6663ft 115kts
26-Dec-17 12:38 33.900632 -116.482087 265 7170ft 142kts
26-Dec-17 12:39 33.896577 -116.527716 267 7889ft 132kts
26-Dec-17 12:40 33.903562 -116.566925 293 8745ft 116kts
26-Dec-17 12:41 33.913307 -116.602763 288 9533ft 113kts
26-Dec-17 12:42 33.922142 -116.640422 291 10031ft 127kts
26-Dec-17 12:43 33.933475 -116.685346 288 10039ft 147kts
26-Dec-17 12:44 33.945230 -116.733122 283 10045ft 152kts
26-Dec-17 12:45 33.943275 -116.784986 268 10060ft 156kts
26-Dec-17 12:46 33.940351 -116.837314 268 10062ft 157kts
26-Dec-17 12:47 33.937484 -116.889943 268 10063ft 157kts
26-Dec-17 12:48 33.936379 -116.942487 270 10063ft 157kts
26-Dec-17 12:49 33.935566 -116.994995 270 10063ft 156kts
26-Dec-17 12:50 33.934590 -117.046665 270 10061ft 156kts
26-Dec-17 12:51 33.933512 -117.098945 270 10064ft 156kts
26-Dec-17 12:52 33.932519 -117.151072 270 10065ft 155kts
26-Dec-17 12:53 33.931533 -117.202610 270 10064ft 154kts
26-Dec-17 12:54 33.930571 -117.254229 270 10064ft 154kts
26-Dec-17 12:55 33.929617 -117.305981 270 10063ft 154kts
26-Dec-17 12:56 33.928590 -117.357595 270 10064ft 154kts
26-Dec-17 12:57 33.925243 -117.409026 264 10066ft 154kts
26-Dec-17 12:58 33.919025 -117.460046 264 10073ft 154kts
26-Dec-17 12:59 33.914644 -117.511367 267 10075ft 154kts
26-Dec-17 13:00 33.916683 -117.560911 302 10091ft 147kts
26-Dec-17 13:01 33.939883 -117.601827 305 10095ft 148kts
26-Dec-17 13:02 33.959461 -117.645154 291 10105ft 148kts
26-Dec-17 13:03 33.973671 -117.692166 292 10106ft 149kts
26-Dec-17 13:04 33.988506 -117.738846 292 10100ft 151kts
26-Dec-17 13:05 34.003206 -117.787100 292 10105ft 154kts
26-Dec-17 13:06 34.018100 -117.836196 293 10039ft 160kts
26-Dec-17 13:07 34.036615 -117.888556 295 9361ft 175kts
26-Dec-17 13:08 34.056033 -117.942780 294 8663ft 176kts
26-Dec-17 13:09 34.075820 -117.996989 295 7966ft 177kts
26-Dec-17 13:10 34.095731 -118.051658 295 7269ft 178kts
26-Dec-17 13:11 34.114331 -118.107295 291 6572ft 178kts
26-Dec-17 13:12 34.131497 -118.163147 291 5879ft 177kts
26-Dec-17 13:13 34.148692 -118.218136 291 5187ft 176kts
26-Dec-17 13:14 34.166011 -118.273497 288 4493ft 176kts
26-Dec-17 13:15 34.147008 -118.321494 223 4136ft 168kts
26-Dec-17 13:16 34.114913 -118.358208 223 4027ft 139kts
26-Dec-17 13:17 34.123366 -118.380736 20 4116ft 117kts
26-Dec-17 13:18 34.152796 -118.365486 23 4225ft 117kts
26-Dec-17 13:19 34.151549 -118.334348 137 4230ft 136kts
26-Dec-17 13:20 34.117295 -118.317602 211 3730ft 146kts
26-Dec-17 13:21 34.091250 -118.350875 222 3369ft 137kts
26-Dec-17 13:22 34.064578 -118.381368 229 2396ft 118kts
26-Dec-17 13:23 34.046188 -118.411097 235 1328ft 102kts
26-Dec-17 13:24 34.030545 -118.433732 225 592ft 78kts
26-Dec-17 13:25 34.016758 -118.450206 223 178ft 45kts
26-Dec-17 13:26 34.013279 -118.453417 121 178ft 0kts
26-Dec-17 13:27 34.013279 -118.453416 121 178ft 0kts
26-Dec-17 13:28 34.014357 -118.452051 47 178ft 11kts
26-Dec-17 13:29 34.016858 -118.448830 58 178ft 8kts
26-Dec-17 13:30 34.016728 -118.448449 135 178ft 0kts
26-Dec-17 13:31 34.016728 -118.448449 135 178ft 0kts
26-Dec-17 13:32 34.016728 -118.448449 135 178ft 0kts
26-Dec-17 13:33 34.016728 -118.448449 135 178ft 0kts
26-Dec-17 13:34 34.016728 -118.448449 135 178ft 0kts

Navigation Log

Ident Type
Flight plan parsing failed, navigation log unavailable